Moody Air Force Base Valdosta US
ICAO: KVAD
IATA: VAD
Category: Medium
Scheduled Services: No

Elevation: 233 ft
TransAlt. 18000 ft.

Airport Communications:
VALDOSTA APP:119.525
ATIS:27.35
VALDOSTA DEP:126.6
GND:120.625
SOF:143.825
AFSOC COMD POST:22.822
PMSV METRO:26.345
PTD:139.3
TWR:128.45

KVAD Zoom In..

If you have problems with the map follow the link
https://www.worldairports.se/pages/airport.php?
ICAO=KVAD

Runways:

(A) RW 18L length 9300 ft width 150 ft
ILS 109.30 / hdg 183

(B) RW 18R length 8000 ft width 150 ft
---- / hdg 184

(C) RW 36L length 8000 ft width 150 ft
---- / hdg 4

(D) RW 36R length 9300 ft width 150 ft
ILS 109.90 / hdg 3

Location; KVAD
Day. 19 / Time. 17.02 Zulu
* Altimeter: 30.10
* Temperature: 16° c. 60.8°f.
* Wind from: 320° Speed 12 kn.
Dewpoint: 14° c.
Visibility: 10 Statute Miles.
Clouds: Broken 1200 ft.
Clouds: Overcast 2200 ft.

KVAD 191702Z AUTO 32012KT 10SM BKN012 OVC022 16/14 A3010 RMK AO2 CIG 012V022 CIG 010 RWY18 SLP194 $


Wind From 320°
Speed 12 kn.

 
 
jpsmedia worldairports.se 2020   terms of use